Terminal Aerodrome Forecast
Issued by NWS

Home | Current Version | Previous Version | Text Only | Print | Product List | Glossary On
Versions: 1 2 3 4 5 6 7 8 9 10 11 12 13 14 15 16 17 18 19 20 21 22 23 24
000
FTUS44 KOUN 132320
TAFHBR
TAF
KHBR 132320Z 1400/1424 02008KT P6SM VCTS SCT040 BKN080CB
     FM140300 04005KT P6SM BKN080
     FM141500 08007KT P6SM BKN100=

USA.gov is the U.S. government's official web portal to all federal, state and local government web resources and services.